Time;durP1;ratioP1;P1;durP2;ratioP2;P2;SDS_P1;SDS_P2;PMS_P1;PMS_P2;Temp;Humidity;BMP_temperature;BMP_pressure;BME280_temperature;BME280_humidity;BME280_pressure;Samples;Min_cycle;Max_cycle;Signal;HPM_P1;HPM_P2
2022/03/06 00:00:40;;;;;;;28.02;18.23;;;;;;;-2.34;100.00;101149.31;5053681;28;20017;-64
2022/03/06 00:03:05;;;;;;;27.23;17.42;;;;;;;-2.38;100.00;101160.38;5053367;28;20021;-64
2022/03/06 00:05:31;;;;;;;28.83;18.85;;;;;;;-2.43;100.00;101162.06;5053401;28;20032;-63
2022/03/06 00:07:59;;;;;;;27.30;17.67;;;;;;;-2.45;100.00;101168.84;5053608;28;20028;-64
2022/03/06 00:10:24;;;;;;;29.45;17.92;;;;;;;-2.52;100.00;101173.03;5041765;28;20561;-63
2022/03/06 00:12:50;;;;;;;32.60;18.55;;;;;;;-2.57;100.00;101167.00;5036943;28;20033;-63
2022/03/06 00:15:15;;;;;;;30.88;18.40;;;;;;;-2.53;100.00;101171.31;5039963;28;20107;-63
2022/03/06 00:17:40;;;;;;;27.02;19.15;;;;;;;-2.52;100.00;101173.03;5042459;28;20107;-63
2022/03/06 00:20:08;;;;;;;31.58;18.27;;;;;;;-2.56;100.00;101171.25;5032577;28;20589;-63
2022/03/06 00:22:35;;;;;;;31.65;19.48;;;;;;;-2.61;100.00;101175.50;5034252;28;20037;-64
2022/03/06 00:25:01;;;;;;;35.75;19.10;;;;;;;-2.73;100.00;101165.00;5039842;28;20029;-64
2022/03/06 00:27:26;;;;;;;33.83;20.63;;;;;;;-2.70;100.00;101165.03;5040793;28;20171;-63
2022/03/06 00:29:51;;;;;;;32.80;20.23;;;;;;;-2.68;100.00;101174.53;5027685;28;20863;-64
2022/03/06 00:32:17;;;;;;;26.52;18.90;;;;;;;-2.71;100.00;101178.75;5041675;28;20029;-63
2022/03/06 00:34:42;;;;;;;27.77;18.60;;;;;;;-2.79;100.00;101170.03;5053139;28;20089;-63
2022/03/06 00:37:08;;;;;;;30.55;20.25;;;;;;;-2.82;100.00;101175.16;5053083;28;20033;-63
2022/03/06 00:39:34;;;;;;;30.77;19.67;;;;;;;-2.92;100.00;101165.53;5052781;28;20025;-64
2022/03/06 00:42:00;;;;;;;30.98;18.60;;;;;;;-2.96;100.00;101169.78;5052836;28;20110;-64
2022/03/06 00:44:25;;;;;;;32.38;19.13;;;;;;;-3.00;100.00;101170.56;5053132;28;20151;-63
2022/03/06 00:46:51;;;;;;;31.58;19.05;;;;;;;-3.03;100.00;101169.63;5052734;28;20499;-63
2022/03/06 00:49:16;;;;;;;30.13;19.13;;;;;;;-3.08;100.00;101167.84;5052610;28;20029;-64
2022/03/06 00:51:42;;;;;;;35.97;20.17;;;;;;;-3.06;100.00;101174.72;5052815;28;20479;-63
2022/03/06 00:54:07;;;;;;;30.63;18.73;;;;;;;-3.04;100.00;101173.06;5048068;28;20029;-63
2022/03/06 00:56:32;;;;;;;29.73;19.17;;;;;;;-3.04;100.00;101173.06;5043795;28;20831;-63
2022/03/06 00:58:58;;;;;;;32.80;18.65;;;;;;;-3.05;100.00;101179.03;5045836;28;20049;-63
2022/03/06 01:01:23;;;;;;;30.85;19.65;;;;;;;-3.06;100.00;101172.16;5042471;28;20414;-63
2022/03/06 01:03:48;;;;;;;32.92;19.50;;;;;;;-3.13;100.00;101174.63;5040609;28;20032;-64
2022/03/06 01:06:14;;;;;;;31.58;18.67;;;;;;;-3.18;100.00;101163.38;5043936;28;20032;-64
2022/03/06 01:08:39;;;;;;;30.25;18.98;;;;;;;-3.17;100.00;101177.97;5044950;28;20033;-63
2022/03/06 01:11:04;;;;;;;31.00;18.77;;;;;;;-3.21;100.00;101178.75;5038696;28;20027;-63
2022/03/06 01:13:30;;;;;;;33.05;19.90;;;;;;;-3.22;100.00;101174.47;5042742;28;20029;-62
2022/03/06 01:15:55;;;;;;;29.30;18.33;;;;;;;-3.22;100.00;101178.75;5046627;28;20029;-63
2022/03/06 01:18:21;;;;;;;35.92;19.48;;;;;;;-3.34;100.00;101169.09;5046533;28;20040;-63
2022/03/06 01:20:46;;;;;;;27.83;17.77;;;;;;;-3.30;100.00;101176.03;5040779;28;20029;-63
2022/03/06 01:23:11;;;;;;;29.25;17.60;;;;;;;-3.33;100.00;101175.97;5050060;28;20111;-63
2022/03/06 01:25:37;;;;;;;31.77;19.30;;;;;;;-3.33;100.00;101181.13;5049158;28;20502;-63
2022/03/06 01:28:03;;;;;;;32.53;19.17;;;;;;;-3.34;100.00;101181.94;5049028;28;20105;-63
2022/03/06 01:30:28;;;;;;;28.10;18.10;;;;;;;-3.36;100.00;101178.50;5051239;28;20059;-63
2022/03/06 01:32:54;;;;;;;30.85;19.17;;;;;;;-3.39;100.00;101181.00;5052458;28;20025;-63
2022/03/06 01:35:19;;;;;;;34.20;20.85;;;;;;;-3.38;100.00;101180.16;5052539;28;20021;-63
2022/03/06 01:37:45;;;;;;;31.70;18.83;;;;;;;-3.37;100.00;101188.72;5050763;28;20025;-63
2022/03/06 01:40:12;;;;;;;30.08;19.33;;;;;;;-3.42;100.00;101186.09;5052071;28;20418;-62
2022/03/06 01:42:45;;;;;;;32.75;19.15;;;;;;;-3.43;100.00;101199.75;5052562;28;20025;-63
2022/03/06 01:45:11;;;;;;;28.08;18.73;;;;;;;-3.46;100.00;101194.56;5050362;28;20021;-63
2022/03/06 01:47:45;;;;;;;36.30;21.33;;;;;;;-3.45;100.00;101200.56;5048574;28;20036;-63
2022/03/06 01:50:23;;;;;;;33.45;21.58;;;;;;;-3.45;100.00;101201.44;5044492;28;20039;-63
2022/03/06 01:52:50;;;;;;;35.08;20.30;;;;;;;-3.47;100.00;101187.69;5052358;28;20037;-63
2022/03/06 01:55:18;;;;;;;33.35;21.77;;;;;;;-3.46;100.00;101196.25;5056046;28;20017;-62
2022/03/06 01:57:44;;;;;;;29.35;20.17;;;;;;;-3.47;100.00;101190.25;5050428;28;20485;-64
2022/03/06 02:00:16;;;;;;;31.08;20.33;;;;;;;-3.48;100.00;101191.09;5054529;28;20104;-64
2022/03/06 02:02:42;;;;;;;34.00;20.52;;;;;;;-3.57;100.00;101184.91;5055978;28;20025;-62
2022/03/06 02:05:08;;;;;;;29.00;19.80;;;;;;;-3.50;100.00;101197.91;5047635;28;20040;-62
2022/03/06 02:07:33;;;;;;;32.67;20.98;;;;;;;-3.46;100.00;101199.72;5045655;28;20033;-63
2022/03/06 02:09:59;;;;;;;34.63;21.67;;;;;;;-3.52;100.00;101194.47;5055735;28;20029;-63
2022/03/06 02:12:25;;;;;;;32.05;19.75;;;;;;;-3.47;100.00;101208.25;5045373;28;20033;-63
2022/03/06 02:14:56;;;;;;;33.70;21.10;;;;;;;-3.50;100.00;101208.19;5038661;28;20032;-63
2022/03/06 02:17:22;;;;;;;35.90;19.50;;;;;;;-3.50;100.00;101203.03;5040996;28;20025;-63
2022/03/06 02:19:52;;;;;;;34.38;20.42;;;;;;;-3.53;100.00;101203.00;5030908;28;20132;-63
2022/03/06 02:22:25;;;;;;;32.63;19.00;;;;;;;-3.55;100.00;101208.94;5025845;28;20029;-63
2022/03/06 02:24:50;;;;;;;33.33;20.77;;;;;;;-3.60;100.00;101206.28;5027550;28;20025;-63
2022/03/06 02:27:15;;;;;;;34.30;20.17;;;;;;;-3.64;100.00;101207.03;5033706;28;20036;-63
2022/03/06 02:29:42;;;;;;;28.38;18.83;;;;;;;-3.63;100.00;101206.22;5035441;28;20018;-64
2022/03/06 02:32:12;;;;;;;28.52;19.30;;;;;;;-3.64;100.00;101201.91;5035529;28;20026;-63
2022/03/06 02:34:39;;;;;;;30.42;20.65;;;;;;;-3.63;100.00;101201.94;5035182;28;20032;-63
2022/03/06 02:37:04;;;;;;;32.47;19.35;;;;;;;-3.64;100.00;101207.91;5030391;28;20041;-63
2022/03/06 02:39:30;;;;;;;30.33;19.55;;;;;;;-3.64;100.00;101196.78;5026530;28;20656;-62
2022/03/06 02:41:56;;;;;;;31.55;19.65;;;;;;;-3.70;100.00;101194.09;5031598;28;20067;-63
2022/03/06 02:44:21;;;;;;;31.27;19.40;;;;;;;-3.72;100.00;101191.47;5020951;28;20028;-63
2022/03/06 02:46:48;;;;;;;30.88;19.25;;;;;;;-3.77;100.00;101197.34;5023558;28;20116;-63
2022/03/06 02:49:14;;;;;;;31.10;20.33;;;;;;;-3.84;100.00;101203.19;5028192;28;20052;-63
2022/03/06 02:51:41;;;;;;;31.15;20.13;;;;;;;-3.88;100.00;101199.69;5034841;28;20021;-63
2022/03/06 02:54:06;;;;;;;27.70;18.05;;;;;;;-3.92;100.00;101203.03;5030892;28;20057;-63
2022/03/06 02:56:32;;;;;;;29.35;18.77;;;;;;;-3.95;100.00;101207.22;5035028;28;20049;-63
2022/03/06 02:58:58;;;;;;;34.75;19.50;;;;;;;-3.96;100.00;101208.09;5034503;28;20152;-64
2022/03/06 03:01:24;;;;;;;36.15;19.23;;;;;;;-4.03;100.00;101203.66;5034700;28;20028;-64
2022/03/06 03:03:49;;;;;;;27.35;18.73;;;;;;;-3.94;100.00;101203.84;5028966;28;20096;-64
2022/03/06 03:06:15;;;;;;;34.13;18.92;;;;;;;-3.94;100.00;101214.09;5025647;28;20103;-64
2022/03/06 03:08:41;;;;;;;30.23;19.42;;;;;;;-3.92;100.00;101204.75;5021617;28;20893;-64
2022/03/06 03:11:07;;;;;;;28.58;18.83;;;;;;;-3.91;100.00;101203.91;5020711;28;20025;-64
2022/03/06 03:13:32;;;;;;;31.58;19.38;;;;;;;-3.91;100.00;101206.47;5027528;28;20032;-65
2022/03/06 03:16:02;;;;;;;28.45;18.45;;;;;;;-3.94;100.00;101214.09;5025997;28;20029;-62
2022/03/06 03:18:29;;;;;;;37.22;19.52;;;;;;;-4.00;100.00;101214.84;5028255;28;20112;-64
2022/03/06 03:20:55;;;;;;;29.00;18.92;;;;;;;-4.02;100.00;101210.53;5017642;28;20022;-63
2022/03/06 03:23:23;;;;;;;29.95;19.58;;;;;;;-4.03;100.00;101213.91;5024067;28;20040;-63
2022/03/06 03:25:48;;;;;;;33.80;19.88;;;;;;;-4.10;100.00;101209.47;5026824;28;20033;-62
2022/03/06 03:28:14;;;;;;;31.13;20.60;;;;;;;-4.07;100.00;101209.53;5021619;28;20040;-62
2022/03/06 03:30:39;;;;;;;31.88;20.42;;;;;;;-4.08;100.00;101213.81;5031666;28;20021;-63
2022/03/06 03:33:04;;;;;;;26.90;18.65;;;;;;;-4.06;100.00;101217.28;5033923;28;20027;-63
2022/03/06 03:35:30;;;;;;;29.55;19.00;;;;;;;-4.05;100.00;101221.56;5034492;28;20021;-62
2022/03/06 03:37:55;;;;;;;33.05;20.38;;;;;;;-4.12;100.00;101210.31;5034327;28;20036;-62
2022/03/06 03:40:21;;;;;;;32.60;18.80;;;;;;;-4.12;100.00;101222.25;5029876;28;20033;-63
2022/03/06 03:42:46;;;;;;;33.72;20.10;;;;;;;-4.14;100.00;101229.94;5026913;28;20048;-63
2022/03/06 03:45:11;;;;;;;31.77;20.58;;;;;;;-4.18;100.00;101225.56;5026373;28;20029;-62
2022/03/06 03:47:37;;;;;;;28.98;19.90;;;;;;;-4.20;100.00;101231.50;5028337;28;20025;-63
2022/03/06 03:50:04;;;;;;;35.55;19.63;;;;;;;-4.29;100.00;101216.75;5030457;28;20029;-63
2022/03/06 03:52:29;;;;;;;31.10;19.73;;;;;;;-4.29;100.00;101232.16;5024469;28;20021;-63
2022/03/06 03:54:55;;;;;;;30.83;18.75;;;;;;;-4.31;100.00;101233.81;5023063;28;20079;-63
2022/03/06 03:57:23;;;;;;;34.92;19.33;;;;;;;-4.32;100.00;101242.34;5024773;28;20156;-63
2022/03/06 03:59:49;;;;;;;29.20;18.25;;;;;;;-4.40;100.00;101225.94;5024618;28;20037;-65
2022/03/06 04:02:14;;;;;;;29.17;18.20;;;;;;;-4.42;100.00;101235.25;5026938;28;20055;-64
2022/03/06 04:04:40;;;;;;;33.17;20.67;;;;;;;-4.39;100.00;101235.31;5030171;28;20091;-64
2022/03/06 04:07:05;;;;;;;34.72;21.70;;;;;;;-4.35;100.00;101237.13;5032384;28;20033;-64
2022/03/06 04:09:31;;;;;;;34.35;21.60;;;;;;;-4.26;100.00;101236.50;5033781;28;20392;-64
2022/03/06 04:11:56;;;;;;;37.65;20.90;;;;;;;-4.21;100.00;101238.34;5030090;28;20461;-64
2022/03/06 04:14:21;;;;;;;33.97;21.17;;;;;;;-4.19;100.00;101234.09;5026605;28;20040;-64
2022/03/06 04:16:47;;;;;;;31.42;20.27;;;;;;;-4.16;100.00;101243.56;5024996;28;20028;-64
2022/03/06 04:19:12;;;;;;;32.67;21.20;;;;;;;-4.09;100.00;101244.59;5025600;28;20025;-63
2022/03/06 04:21:38;;;;;;;26.52;18.83;;;;;;;-4.12;100.00;101246.22;5027631;28;20038;-63
2022/03/06 04:24:03;;;;;;;32.45;18.35;;;;;;;-4.23;100.00;101236.56;5027928;28;20033;-64
2022/03/06 04:26:29;;;;;;;43.83;20.83;;;;;;;-4.23;100.00;101251.97;5027522;28;20034;-63
2022/03/06 04:28:54;;;;;;;36.42;20.80;;;;;;;-4.32;100.00;101257.72;5033258;28;20045;-62
2022/03/06 04:31:20;;;;;;;30.05;19.17;;;;;;;-4.38;100.00;101256.72;5027783;28;20027;-62
2022/03/06 04:33:45;;;;;;;33.50;20.08;;;;;;;-4.48;100.00;101260.75;5018498;28;20479;-63
2022/03/06 04:36:10;;;;;;;35.95;21.30;;;;;;;-4.46;100.00;101269.34;5027958;28;20032;-63
2022/03/06 04:38:36;;;;;;;38.28;21.98;;;;;;;-4.41;100.00;101270.34;5019639;28;20025;-63
2022/03/06 04:41:02;;;;;;;36.60;22.80;;;;;;;-4.33;100.00;101268.84;5027270;28;20765;-63
2022/03/06 04:43:28;;;;;;;35.78;22.38;;;;;;;-4.31;100.00;101269.72;5020679;28;20033;-63
2022/03/06 04:45:53;;;;;;;39.97;23.35;;;;;;;-4.31;100.00;101267.16;5026473;28;20265;-63
2022/03/06 04:48:18;;;;;;;38.38;21.88;;;;;;;-4.35;100.00;101280.75;5026900;28;20029;-63
2022/03/06 04:50:44;;;;;;;33.60;22.38;;;;;;;-4.35;100.00;101279.88;5029539;28;20448;-63
2022/03/06 04:53:09;;;;;;;38.28;24.63;;;;;;;-4.33;100.00;101285.91;5025594;28;20475;-63
2022/03/06 04:55:35;;;;;;;32.47;22.60;;;;;;;-4.35;100.00;101265.34;5027101;28;20559;-63
2022/03/06 04:58:00;;;;;;;40.28;24.80;;;;;;;-4.30;100.00;101279.16;5029940;28;20029;-63
2022/03/06 05:00:25;;;;;;;37.55;25.05;;;;;;;-4.32;100.00;101278.25;5030508;28;20021;-63
2022/03/06 05:02:51;;;;;;;45.88;25.30;;;;;;;-4.27;100.00;101286.94;5029082;28;20116;-63
2022/03/06 05:05:16;;;;;;;37.70;24.00;;;;;;;-4.23;100.00;101293.00;5023594;28;20052;-63
2022/03/06 05:07:41;;;;;;;44.78;27.02;;;;;;;-4.21;100.00;101279.38;5032728;28;20475;-63
2022/03/06 05:10:09;;;;;;;42.22;26.45;;;;;;;-4.17;100.00;101288.88;5023461;28;20031;-63
2022/03/06 05:12:34;;;;;;;38.08;25.55;;;;;;;-4.15;100.00;101292.34;5026920;28;20021;-63
2022/03/06 05:15:03;;;;;;;41.33;25.27;;;;;;;-4.19;100.00;101282.00;5029856;28;20049;-63
2022/03/06 05:17:28;;;;;;;39.00;26.35;;;;;;;-4.24;100.00;101287.00;5034776;28;20036;-63
2022/03/06 05:19:54;;;;;;;42.28;24.85;;;;;;;-4.29;100.00;101286.00;5051131;28;20037;-63
2022/03/06 05:22:19;;;;;;;46.28;27.88;;;;;;;-4.33;100.00;101293.63;5049225;28;20052;-62
2022/03/06 05:24:44;;;;;;;45.72;26.48;;;;;;;-4.37;100.00;101291.81;5048521;28;20032;-63
2022/03/06 05:27:10;;;;;;;44.20;25.63;;;;;;;-4.42;100.00;101283.09;5049676;28;20104;-63
2022/03/06 05:29:35;;;;;;;43.67;27.42;;;;;;;-4.36;100.00;101290.97;5053537;28;20513;-63
2022/03/06 05:32:01;;;;;;;43.67;28.73;;;;;;;-4.25;100.00;101295.50;5052494;28;20103;-63
2022/03/06 05:34:26;;;;;;;46.22;27.02;;;;;;;-4.23;100.00;101287.88;5048895;28;20027;-63
2022/03/06 05:36:51;;;;;;;51.53;30.67;;;;;;;-4.13;100.00;101298.38;5049753;28;20033;-63
2022/03/06 05:39:17;;;;;;;47.50;31.15;;;;;;;-4.02;100.00;101302.91;5049477;28;20031;-63
2022/03/06 05:41:42;;;;;;;42.95;28.98;;;;;;;-3.98;100.00;101305.56;5051644;28;20028;-62
2022/03/06 05:44:07;;;;;;;56.88;31.38;;;;;;;-3.96;100.00;101309.03;5048946;28;20024;-63
2022/03/06 05:46:33;;;;;;;47.83;31.80;;;;;;;-3.91;100.00;101301.44;5046209;28;20032;-62
2022/03/06 05:48:58;;;;;;;56.50;31.67;;;;;;;-3.89;100.00;101307.47;5050797;28;20449;-63
2022/03/06 05:51:23;;;;;;;48.08;30.23;;;;;;;-3.84;100.00;101313.56;5049526;28;20124;-63
2022/03/06 05:53:49;;;;;;;48.80;30.50;;;;;;;-3.86;100.00;101320.38;5047752;28;20021;-63
2022/03/06 05:56:14;;;;;;;55.67;31.75;;;;;;;-3.86;100.00;101325.50;5043089;28;20440;-63
2022/03/06 05:58:40;;;;;;;44.08;30.05;;;;;;;-3.85;100.00;101333.22;5043346;28;20051;-63
2022/03/06 06:01:05;;;;;;;44.83;30.40;;;;;;;-3.82;100.00;101332.44;5042766;28;20040;-63
2022/03/06 06:03:30;;;;;;;51.58;32.33;;;;;;;-3.74;100.00;101336.91;5044522;28;20098;-62
2022/03/06 06:05:56;;;;;;;46.85;30.80;;;;;;;-3.63;100.00;101339.72;5044618;28;20379;-62
2022/03/06 06:08:21;;;;;;;46.42;29.88;;;;;;;-3.55;100.00;101333.06;5047148;28;20029;-62
2022/03/06 06:10:46;;;;;;;46.47;31.58;;;;;;;-3.52;100.00;101343.41;5047221;28;20084;-62
2022/03/06 06:13:14;;;;;;;52.88;31.33;;;;;;;-3.51;100.00;101347.69;5048024;28;20032;-62
2022/03/06 06:15:43;;;;;;;48.20;31.30;;;;;;;-3.43;100.00;101343.59;5047178;28;20047;-62
2022/03/06 06:18:09;;;;;;;50.03;29.40;;;;;;;-3.43;100.00;101353.88;5044694;28;20029;-62
2022/03/06 06:20:36;;;;;;;53.58;29.67;;;;;;;-3.45;100.00;101355.56;5039035;28;20024;-62
2022/03/06 06:23:05;;;;;;;47.25;28.73;;;;;;;-3.43;100.00;101359.00;5042337;28;20116;-62
2022/03/06 06:25:30;;;;;;;51.45;30.60;;;;;;;-3.39;100.00;101370.22;5042904;28;20108;-62
2022/03/06 06:27:56;;;;;;;49.90;29.88;;;;;;;-3.37;100.00;101358.25;5043878;28;20032;-63
2022/03/06 06:30:21;;;;;;;51.80;29.55;;;;;;;-3.36;100.00;101365.13;5044116;28;20174;-62
2022/03/06 06:32:46;;;;;;;47.30;29.30;;;;;;;-3.30;100.00;101367.81;5049124;28;20028;-62
2022/03/06 06:35:12;;;;;;;50.08;30.85;;;;;;;-3.24;100.00;101379.09;5051540;28;20100;-63
2022/03/06 06:37:37;;;;;;;48.40;29.92;;;;;;;-3.20;100.00;101378.34;5055163;28;20376;-62
2022/03/06 06:40:03;;;;;;;50.47;29.35;;;;;;;-3.16;100.00;101375.00;5055459;28;20104;-62
2022/03/06 06:42:28;;;;;;;46.72;28.35;;;;;;;-3.02;100.00;101374.41;5055026;28;20727;-63
2022/03/06 06:44:54;;;;;;;45.22;28.30;;;;;;;-2.98;100.00;101373.66;5054726;28;20041;-62
2022/03/06 06:47:19;;;;;;;47.78;28.77;;;;;;;-2.90;100.00;101390.06;5055018;28;20051;-62
2022/03/06 06:49:45;;;;;;;50.45;28.73;;;;;;;-2.87;100.00;101383.28;5019006;28;20117;-63
2022/03/06 06:52:10;;;;;;;44.63;29.00;;;;;;;-2.81;100.00;101385.13;5048285;28;20183;-62
2022/03/06 06:54:35;;;;;;;42.15;28.75;;;;;;;-2.75;100.00;101393.84;5039326;28;20039;-62
2022/03/06 06:57:01;;;;;;;45.60;28.48;;;;;;;-2.69;100.00;101388.81;5035118;28;20027;-62
2022/03/06 06:59:26;;;;;;;39.88;28.48;;;;;;;-2.65;100.00;101394.88;5027253;28;20238;-62
2022/03/06 07:01:52;;;;;;;46.33;27.63;;;;;;;-2.63;100.00;101398.31;5028667;28;20021;-62
2022/03/06 07:04:17;;;;;;;41.65;27.98;;;;;;;-2.62;100.00;101411.22;5024741;28;20947;-62
2022/03/06 07:06:43;;;;;;;46.40;28.30;;;;;;;-2.60;100.00;101411.25;5039844;28;20438;-62
2022/03/06 07:09:08;;;;;;;54.35;28.30;;;;;;;-2.60;100.00;101413.81;5035245;28;20029;-62
2022/03/06 07:11:33;;;;;;;43.97;28.42;;;;;;;-2.58;100.00;101417.31;5037288;28;20671;-62
2022/03/06 07:13:59;;;;;;;46.42;26.60;;;;;;;-2.59;100.00;101423.28;5038017;28;20098;-62
2022/03/06 07:16:24;;;;;;;45.63;28.48;;;;;;;-2.59;100.00;101420.72;5030782;28;20033;-62
2022/03/06 07:18:49;;;;;;;49.20;29.98;;;;;;;-2.59;100.00;101425.84;5031408;28;20046;-62
2022/03/06 07:21:15;;;;;;;44.63;27.08;;;;;;;-2.60;100.00;101419.84;5034067;28;20025;-62
2022/03/06 07:23:40;;;;;;;46.30;27.42;;;;;;;-2.59;100.00;101425.84;5034368;28;20844;-62
2022/03/06 07:26:06;;;;;;;43.13;27.42;;;;;;;-2.56;100.00;101433.63;5037941;28;20029;-62
2022/03/06 07:28:31;;;;;;;46.78;29.08;;;;;;;-2.52;100.00;101432.84;5034786;28;20033;-62
2022/03/06 07:30:56;;;;;;;39.30;26.48;;;;;;;-2.47;100.00;101431.25;5037999;28;20025;-62
2022/03/06 07:33:24;;;;;;;47.33;28.58;;;;;;;-2.42;100.00;101433.88;5038541;28;20021;-62
2022/03/06 07:35:50;;;;;;;42.97;28.10;;;;;;;-2.34;100.00;101433.22;5037643;28;20029;-62
2022/03/06 07:38:15;;;;;;;40.30;25.98;;;;;;;-2.28;100.00;101435.88;5038075;28;20052;-62
2022/03/06 07:40:41;;;;;;;47.25;27.63;;;;;;;-2.18;100.00;101444.63;5038084;28;20029;-62
2022/03/06 07:43:06;;;;;;;44.28;26.38;;;;;;;-2.08;100.00;101447.41;5036212;28;20449;-62
2022/03/06 07:45:32;;;;;;;39.45;25.52;;;;;;;-1.97;100.00;101444.16;5036544;28;20078;-62
2022/03/06 07:47:57;;;;;;;39.08;26.73;;;;;;;-1.79;100.00;101452.19;5037651;28;20476;-62
2022/03/06 07:50:23;;;;;;;45.92;27.65;;;;;;;-1.63;100.00;101461.91;5036634;28;20029;-62
2022/03/06 07:52:48;;;;;;;41.95;27.48;;;;;;;-1.68;100.00;101417.16;5034846;28;20129;-62
2022/03/06 07:55:14;;;;;;;33.70;24.35;;;;;;;-1.41;100.00;101448.50;5033739;28;20399;-62
2022/03/06 07:57:39;;;;;;;38.47;25.10;;;;;;;-1.35;100.00;101453.75;5030436;28;20044;-62
2022/03/06 08:00:10;;;;;;;36.47;24.35;;;;;;;-1.32;100.00;101456.38;5036140;28;20033;-62
2022/03/06 08:02:36;;;;;;;37.17;24.38;;;;;;;-1.27;100.00;101466.75;5038385;28;20071;-63
2022/03/06 08:05:01;;;;;;;41.40;26.27;;;;;;;-1.23;100.00;101459.09;5034644;28;20068;-62
2022/03/06 08:07:27;;;;;;;38.40;26.42;;;;;;;-1.16;100.00;101460.94;5036212;28;20136;-62
2022/03/06 08:09:52;;;;;;;41.08;25.35;;;;;;;-1.07;100.00;101461.03;5035495;28;20020;-62
2022/03/06 08:12:22;;;;;;;36.65;25.92;;;;;;;-1.00;100.00;101455.97;5034413;28;20032;-62
2022/03/06 08:14:48;;;;;;;40.63;25.08;;;;;;;-0.91;100.00;101464.69;5069952;28;20387;-63
2022/03/06 08:17:13;;;;;;;40.15;25.38;;;;;;;-0.83;100.00;101467.38;5033336;28;20032;-63
2022/03/06 08:19:39;;;;;;;39.90;25.58;;;;;;;-0.95;100.00;101438.84;5041959;28;20088;-63
2022/03/06 08:22:04;;;;;;;36.38;24.35;;;;;;;-0.70;100.00;101457.22;5043828;28;20033;-63
2022/03/06 08:24:31;;;;;;;34.17;23.00;;;;;;;-0.59;100.00;101473.72;5043447;28;20086;-62
2022/03/06 08:26:56;;;;;;;38.03;24.08;;;;;;;-0.55;100.00;101464.31;5044261;28;20033;-63
2022/03/06 08:29:21;;;;;;;37.22;24.40;;;;;;;-0.40;100.00;101477.38;5044678;28;20032;-63
2022/03/06 08:31:47;;;;;;;37.80;23.08;;;;;;;-0.31;100.00;101474.06;5044007;28;20021;-63
2022/03/06 08:34:12;;;;;;;34.58;23.23;;;;;;;-0.20;100.00;101486.22;5044221;28;20519;-63
2022/03/06 08:36:37;;;;;;;31.10;22.17;;;;;;;-0.11;100.00;101476.00;5043317;28;20040;-63
2022/03/06 08:39:03;;;;;;;34.88;22.27;;;;;;;0.02;100.00;101477.00;5041706;28;20083;-63
2022/03/06 08:41:29;;;;;;;39.45;23.52;;;;;;;0.12;100.00;101485.69;5043003;28;20029;-63
2022/03/06 08:43:54;;;;;;;34.67;22.27;;;;;;;0.16;100.00;101479.69;5041295;28;20526;-63
2022/03/06 08:46:20;;;;;;;47.17;22.73;;;;;;;0.22;100.00;101475.47;5042806;28;20403;-62
2022/03/06 08:48:45;;;;;;;35.13;22.20;;;;;;;0.28;100.00;101479.81;5042549;28;20764;-63
2022/03/06 08:51:10;;;;;;;33.90;22.48;;;;;;;0.33;100.00;101479.00;5028777;28;20105;-63
2022/03/06 08:53:36;;;;;;;30.20;21.63;;;;;;;0.43;100.00;101485.13;5021430;28;20875;-63
2022/03/06 08:56:01;;;;;;;38.50;23.00;;;;;;;0.53;100.00;101486.94;5021572;28;20033;-63
2022/03/06 08:58:27;;;;;;;33.88;21.52;;;;;;;0.62;100.00;101491.28;5020231;28;20020;-63
2022/03/06 09:00:53;;;;;;;28.35;20.67;;;;;;;0.68;100.00;101488.75;5018871;28;20043;-64
2022/03/06 09:03:18;;;;;;;34.45;21.02;;;;;;;0.76;100.00;101487.97;5019740;28;20067;-62
2022/03/06 09:05:43;;;;;;;34.35;21.40;;;;;;;0.82;100.00;101485.41;5016941;28;20742;-62
2022/03/06 09:08:10;;;;;;;28.67;19.98;;;;;;;0.90;100.00;101488.06;5017339;28;20086;-62
2022/03/06 09:10:36;;;;;;;27.05;19.48;;;;;;;0.96;100.00;101493.25;5013742;28;20045;-62
2022/03/06 09:13:02;;;;;;;29.48;19.98;;;;;;;1.01;100.00;101492.44;5018517;28;20025;-62
2022/03/06 09:15:28;;;;;;;29.45;19.80;;;;;;;1.03;100.00;101477.78;5051276;28;20444;-62
2022/03/06 09:17:54;;;;;;;35.45;19.85;;;;;;;1.18;100.00;101484.78;5020565;28;20071;-62
2022/03/06 09:20:19;;;;;;;33.17;19.58;;;;;;;1.29;100.00;101485.69;5020191;28;20071;-63
2022/03/06 09:22:46;;;;;;;29.52;20.48;;;;;;;1.35;100.00;101484.88;5017917;28;20033;-63
2022/03/06 09:25:11;;;;;;;30.27;20.90;;;;;;;1.50;100.00;101493.56;5017960;28;20029;-63
2022/03/06 09:27:37;;;;;;;28.90;19.60;;;;;;;1.61;100.00;101493.63;5015620;28;20047;-63
2022/03/06 09:30:07;;;;;;;26.83;19.65;;;;;;;1.69;100.00;101494.50;5014101;28;20049;-63
2022/03/06 09:32:32;;;;;;;27.40;19.08;;;;;;;1.77;100.00;101497.97;5012559;28;20025;-63
2022/03/06 09:34:58;;;;;;;30.70;18.38;;;;;;;1.86;100.00;101503.19;5011960;28;20056;-63
2022/03/06 09:37:24;;;;;;;28.90;18.92;;;;;;;2.00;100.00;101506.69;5009668;28;20201;-63
2022/03/06 09:39:50;;;;;;;32.35;20.50;;;;;;;2.11;100.00;101505.84;5013576;28;20029;-63
2022/03/06 09:42:19;;;;;;;32.42;19.15;;;;;;;2.18;100.00;101499.81;5012945;28;20035;-63
2022/03/06 09:44:48;;;;;;;27.92;18.85;;;;;;;2.14;100.00;101472.16;5017312;28;20037;-63
2022/03/06 09:47:14;;;;;;;28.20;17.63;;;;;;;2.33;100.00;101499.84;5014703;28;20187;-63
2022/03/06 09:49:42;;;;;;;27.45;18.80;;;;;;;2.37;100.00;101505.00;5013668;28;20029;-63
2022/03/06 09:52:08;;;;;;;25.48;18.48;;;;;;;2.35;100.00;101504.16;5011454;28;20997;-63
2022/03/06 09:54:33;;;;;;;31.00;19.38;;;;;;;2.40;100.00;101506.75;5011154;28;20033;-63
2022/03/06 09:57:00;;;;;;;27.58;18.55;;;;;;;2.43;100.00;101504.19;5011648;28;20190;-63
2022/03/06 09:59:26;;;;;;;27.63;18.52;;;;;;;2.44;100.00;101511.94;5011174;28;20082;-64
2022/03/06 10:01:51;;;;;;;26.38;19.38;;;;;;;2.49;100.00;101507.63;5016347;28;20858;-63
2022/03/06 10:04:26;;;;;;;23.77;17.05;;;;;;;2.51;100.00;101502.44;5012079;28;20028;-63
2022/03/06 10:07:03;;;;;;;31.42;20.60;;;;;;;2.43;100.00;101491.22;5009417;28;20025;-63
2022/03/06 10:09:30;;;;;;;29.80;18.63;;;;;;;2.61;100.00;101501.56;5009456;28;20024;-64
2022/03/06 10:11:56;;;;;;;28.27;17.90;;;;;;;2.65;100.00;101505.91;5007566;28;20021;-64
2022/03/06 10:14:41;;;;;;;23.23;16.95;;;;;;;2.66;100.00;101494.66;5012872;28;20025;-63
2022/03/06 10:17:28;;;;;;;28.83;19.50;;;;;;;2.80;100.00;101503.31;5016016;28;20060;-64
2022/03/06 10:19:59;;;;;;;24.63;17.60;;;;;;;2.91;100.00;101511.06;5030633;28;20036;-64
2022/03/06 10:22:35;;;;;;;32.10;17.75;;;;;;;2.98;100.00;101502.41;5044091;28;20121;-63
2022/03/06 10:25:09;;;;;;;32.55;20.58;;;;;;;3.04;100.00;101498.06;5047005;28;20036;-66
2022/03/06 10:27:49;;;;;;;28.55;18.27;;;;;;;3.15;100.00;101507.56;5054171;28;20036;-64
2022/03/06 10:30:22;;;;;;;23.85;18.10;;;;;;;3.21;100.00;101504.97;5051860;28;20036;-62
2022/03/06 10:32:47;;;;;;;24.10;17.33;;;;;;;3.27;100.00;101499.75;5052339;28;20028;-63
2022/03/06 10:35:12;;;;;;;31.73;17.75;;;;;;;3.32;100.00;101504.06;5044679;28;20020;-64
2022/03/06 10:37:38;;;;;;;25.08;17.63;;;;;;;3.41;100.00;101503.19;5051867;28;20048;-62
2022/03/06 10:40:04;;;;;;;24.02;17.00;;;;;;;3.47;100.00;101508.34;5054462;28;20090;-63
2022/03/06 10:42:29;;;;;;;22.27;16.95;;;;;;;3.54;100.00;101510.06;5049314;28;20028;-66
2022/03/06 10:44:54;;;;;;;25.10;17.50;;;;;;;3.66;100.00;101510.00;5052110;28;20027;-66
2022/03/06 10:47:20;;;;;;;27.50;17.40;;;;;;;3.80;100.00;101508.22;5053100;28;20463;-64
2022/03/06 10:50:06;;;;;;;23.98;17.38;;;;;;;3.92;100.00;101508.13;5053866;28;20091;-65
2022/03/06 10:52:41;;;;;;;23.42;16.05;;;;;;;4.02;100.00;101509.81;5049971;28;20045;-62
2022/03/06 10:55:07;;;;;;;23.08;16.08;;;;;;;4.03;100.00;101511.56;5053589;28;20397;-63
2022/03/06 10:57:32;;;;;;;33.58;15.95;;;;;;;4.20;100.00;101508.84;5053597;28;20036;-63
2022/03/06 10:59:58;;;;;;;23.48;15.77;;;;;;;4.22;100.00;101498.44;5052693;28;20171;-63